Time;durP1;ratioP1;P1;durP2;ratioP2;P2;SDS_P1;SDS_P2;PMS_P1;PMS_P2;Temp;Humidity;BMP_temperature;BMP_pressure;BME280_temperature;BME280_humidity;BME280_pressure;Samples;Min_cycle;Max_cycle;Signal;HPM_P1;HPM_P2
2022/08/09 00:00:24;;;;;;;4.18;1.75;;;;;;;23.53;46.75;102636.88;5034973;28;20056;-71
2022/08/09 00:02:51;;;;;;;3.40;1.90;;;;;;;23.52;47.18;102635.16;5034162;28;20381;-72
2022/08/09 00:05:20;;;;;;;4.90;1.73;;;;;;;23.51;46.95;102636.97;5034309;28;20349;-72
2022/08/09 00:07:45;;;;;;;3.65;1.70;;;;;;;23.51;47.18;102639.66;5034144;28;20097;-72
2022/08/09 00:10:11;;;;;;;4.45;1.67;;;;;;;23.51;46.81;102630.78;5034566;28;20116;-72
2022/08/09 00:12:37;;;;;;;3.97;1.90;;;;;;;23.50;46.79;102623.78;5034703;28;20104;-72
2022/08/09 00:15:05;;;;;;;3.30;1.88;;;;;;;23.50;47.19;102627.28;5033570;28;20548;-72
2022/08/09 00:17:31;;;;;;;4.70;1.80;;;;;;;23.50;46.76;102624.63;5034453;28;20029;-73
2022/08/09 00:19:56;;;;;;;3.70;1.73;;;;;;;23.50;46.85;102632.63;5034281;28;20025;-72
2022/08/09 00:22:21;;;;;;;3.67;1.60;;;;;;;23.48;46.81;102615.06;5033533;28;20287;-72
2022/08/09 00:24:47;;;;;;;4.80;1.95;;;;;;;23.48;46.97;102625.69;5034554;28;20052;-72
2022/08/09 00:27:12;;;;;;;3.67;1.80;;;;;;;23.47;47.14;102632.84;5034102;28;20378;-72
2022/08/09 00:29:37;;;;;;;3.80;1.77;;;;;;;23.46;46.86;102627.63;5033663;28;20068;-72
2022/08/09 00:32:06;;;;;;;4.07;2.00;;;;;;;23.45;47.06;102626.81;5034063;28;20298;-72
2022/08/09 00:34:34;;;;;;;3.35;1.65;;;;;;;23.44;46.95;102616.28;5034093;28;20021;-72
2022/08/09 00:36:59;;;;;;;5.00;1.88;;;;;;;23.44;46.99;102625.09;5033079;28;20479;-72
2022/08/09 00:39:25;;;;;;;3.38;1.80;;;;;;;23.42;47.13;102624.38;5034100;28;20025;-71
2022/08/09 00:41:53;;;;;;;3.27;1.77;;;;;;;23.41;47.11;102625.34;5034064;28;20029;-72
2022/08/09 00:44:18;;;;;;;2.95;1.70;;;;;;;23.40;46.97;102626.31;5033244;28;20750;-72
2022/08/09 00:46:43;;;;;;;5.03;2.03;;;;;;;23.40;47.02;102628.97;5033906;28;20028;-72
2022/08/09 00:49:09;;;;;;;3.20;1.60;;;;;;;23.39;46.96;102627.28;5033474;28;20040;-72
2022/08/09 00:51:38;;;;;;;3.78;1.95;;;;;;;23.39;46.68;102623.78;5033040;28;20673;-72
2022/08/09 00:54:03;;;;;;;4.13;1.90;;;;;;;23.38;47.04;102628.22;5033570;28;20466;-72
2022/08/09 00:56:31;;;;;;;6.63;1.85;;;;;;;23.38;46.84;102630.03;5033967;28;20033;-72
2022/08/09 00:58:57;;;;;;;6.60;2.22;;;;;;;23.36;47.00;102624.84;5033007;28;20091;-72
2022/08/09 01:01:33;;;;;;;4.53;1.90;;;;;;;23.35;47.09;102633.78;5033247;28;20025;-72
2022/08/09 01:04:17;;;;;;;2.85;1.52;;;;;;;23.34;47.05;102630.28;5032494;28;20389;-73
2022/08/09 01:07:04;;;;;;;;;;;;;;;23.33;47.04;102635.72;5034196;28;20038;-72
2022/08/09 01:09:38;;;;;;;4.13;1.88;;;;;;;23.33;46.69;102622.41;5033618;28;19913;-72
2022/08/09 01:12:03;;;;;;;3.55;1.50;;;;;;;23.33;47.01;102631.22;5032444;28;20441;-72
2022/08/09 01:14:35;;;;;;;5.03;1.90;;;;;;;23.33;46.76;102625.06;5033644;28;20068;-73
2022/08/09 01:17:15;;;;;;;4.10;1.70;;;;;;;23.32;46.70;102626.03;5033225;28;20658;-72
2022/08/09 01:20:01;;;;;;;4.00;1.83;;;;;;;23.31;47.00;102629.66;5032901;28;20026;-72
2022/08/09 01:22:43;;;;;;;5.90;1.95;;;;;;;23.30;46.97;102625.31;5033420;28;20101;-72
2022/08/09 01:25:46;;;;;;;3.88;1.85;;;;;;;23.29;46.63;102631.56;5032666;28;20095;-72
2022/08/09 01:28:14;;;;;;;3.50;1.70;;;;;;;23.27;47.23;102629.03;5033117;28;20033;-72
2022/08/09 01:30:42;;;;;;;4.18;1.88;;;;;;;23.28;46.60;102632.56;5033233;28;20432;-72
2022/08/09 01:33:10;;;;;;;3.08;1.60;;;;;;;23.28;46.93;102635.22;5032347;28;20033;-71
2022/08/09 01:35:42;;;;;;;3.92;1.80;;;;;;;23.26;46.97;102626.50;5033399;28;20025;-72
2022/08/09 01:38:19;;;;;;;4.13;1.73;;;;;;;23.25;46.60;102622.97;5033082;28;20025;-72
2022/08/09 01:40:51;;;;;;;3.80;1.48;;;;;;;23.26;46.81;102626.50;5032208;28;20037;-71
2022/08/09 01:43:17;;;;;;;4.32;1.80;;;;;;;23.25;46.60;102620.31;5032647;28;20053;-72
2022/08/09 01:45:45;;;;;;;2.85;1.70;;;;;;;23.24;46.56;102617.78;5033353;28;20049;-72
2022/08/09 01:48:13;;;;;;;3.67;1.80;;;;;;;23.23;46.62;102619.59;5032521;28;20037;-72
2022/08/09 01:50:41;;;;;;;3.83;1.80;;;;;;;23.22;46.57;102617.91;5033192;28;20033;-72
2022/08/09 01:53:09;;;;;;;4.65;1.80;;;;;;;23.22;46.63;102623.22;5032819;28;20419;-72
2022/08/09 01:55:35;;;;;;;3.95;1.73;;;;;;;23.20;46.69;102625.16;5032575;28;20030;-72
2022/08/09 01:58:04;;;;;;;3.20;1.70;;;;;;;23.20;46.91;102621.66;5032398;28;20029;-72
2022/08/09 02:00:30;;;;;;;3.58;1.70;;;;;;;23.18;46.97;102629.75;5032019;28;20029;-71
2022/08/09 02:02:59;;;;;;;4.78;1.60;;;;;;;23.19;46.98;102628.75;5032849;28;20488;-72
2022/08/09 02:05:26;;;;;;;3.47;1.85;;;;;;;23.16;47.07;102627.19;5033009;28;20021;-72
2022/08/09 02:08:07;;;;;;;4.40;1.88;;;;;;;23.16;46.57;102632.53;5032037;28;20026;-72
2022/08/09 02:10:38;;;;;;;3.28;1.52;;;;;;;23.15;47.00;102630.81;5033049;28;20026;-72
2022/08/09 02:13:06;;;;;;;3.13;1.60;;;;;;;23.16;46.63;102637.84;5035248;28;20108;-72
2022/08/09 02:15:39;;;;;;;3.88;1.65;;;;;;;23.14;46.89;102642.41;5036422;28;20017;-72
2022/08/09 02:18:06;;;;;;;3.58;1.80;;;;;;;23.14;47.02;102636.25;5036493;28;20119;-72
2022/08/09 02:20:37;;;;;;;4.75;2.08;;;;;;;23.13;46.86;102631.88;5036714;28;20021;-72
2022/08/09 02:23:13;;;;;;;4.55;1.88;;;;;;;23.11;46.71;102629.34;5035405;28;20032;-71
2022/08/09 02:25:41;;;;;;;3.63;1.90;;;;;;;23.11;47.10;102628.50;5036835;28;20047;-72
2022/08/09 02:28:10;;;;;;;4.15;1.85;;;;;;;23.09;46.92;102623.28;5036104;28;20410;-71
2022/08/09 02:30:41;;;;;;;3.95;1.88;;;;;;;23.09;46.54;102633.94;5035710;28;20032;-72
2022/08/09 02:33:12;;;;;;;3.75;1.77;;;;;;;23.09;46.42;102628.59;5036315;28;20022;-72
2022/08/09 02:35:40;;;;;;;4.50;1.83;;;;;;;23.07;47.03;102627.84;5035831;28;20035;-71
2022/08/09 02:38:08;;;;;;;5.40;1.80;;;;;;;23.08;46.64;102620.75;5036360;28;20358;-72
2022/08/09 02:40:35;;;;;;;3.83;1.70;;;;;;;23.07;46.56;102622.53;5036328;28;20100;-71
2022/08/09 02:43:02;;;;;;;3.35;1.80;;;;;;;23.06;46.74;102622.66;5035228;28;20381;-72
2022/08/09 02:45:39;;;;;;;3.63;1.80;;;;;;;23.06;46.77;102623.47;5036254;28;20369;-72
2022/08/09 02:48:10;;;;;;;3.85;1.73;;;;;;;23.06;46.55;102620.00;5036172;28;20017;-72
2022/08/09 02:50:38;;;;;;;5.40;2.50;;;;;;;23.03;46.56;102618.41;5035601;28;20096;-71
2022/08/09 02:53:12;;;;;;;4.40;2.20;;;;;;;23.03;46.62;102622.88;5035888;28;20159;-72
2022/08/09 02:55:39;;;;;;;3.15;1.73;;;;;;;23.00;46.82;102616.84;5036159;28;20385;-72
2022/08/09 02:58:07;;;;;;;2.60;1.63;;;;;;;23.03;46.74;102617.56;5034861;28;20029;-72
2022/08/09 03:00:32;;;;;;;4.13;2.05;;;;;;;23.03;46.67;102625.53;5035864;28;20515;-72
2022/08/09 03:02:59;;;;;;;3.95;2.15;;;;;;;23.03;46.69;102614.91;5036034;28;20037;-71
2022/08/09 03:05:25;;;;;;;3.40;1.90;;;;;;;23.03;46.78;102622.88;5035139;28;20028;-72
2022/08/09 03:07:52;;;;;;;4.20;2.10;;;;;;;23.01;46.61;102621.16;5035982;28;20100;-71
2022/08/09 03:10:18;;;;;;;5.20;1.77;;;;;;;23.00;46.67;102616.84;5035558;28;20037;-72
2022/08/09 03:12:46;;;;;;;4.35;1.98;;;;;;;22.99;46.76;102616.94;5035269;28;20021;-72
2022/08/09 03:15:12;;;;;;;3.83;2.10;;;;;;;22.99;46.87;102616.94;5035712;28;20021;-72
2022/08/09 03:17:42;;;;;;;3.33;1.70;;;;;;;22.98;46.88;102617.91;5035024;28;20053;-72
2022/08/09 03:20:09;;;;;;;3.42;1.65;;;;;;;22.97;46.64;102621.50;5035570;28;20022;-72
2022/08/09 03:22:38;;;;;;;3.58;1.85;;;;;;;22.96;46.99;102618.00;5035525;28;20022;-72
2022/08/09 03:25:04;;;;;;;4.00;1.98;;;;;;;22.93;46.54;102618.22;5034564;28;20033;-72
2022/08/09 03:27:31;;;;;;;3.45;1.90;;;;;;;22.94;46.68;102621.72;5035515;28;20492;-72
2022/08/09 03:29:57;;;;;;;3.78;1.80;;;;;;;22.93;46.80;102612.91;5035677;28;20025;-71
2022/08/09 03:32:23;;;;;;;3.67;2.00;;;;;;;22.92;46.97;102613.03;5034463;28;20048;-71
2022/08/09 03:34:48;;;;;;;3.83;1.80;;;;;;;22.93;46.71;102625.38;5035487;28;20055;-72
2022/08/09 03:37:13;;;;;;;4.63;2.03;;;;;;;22.92;46.81;102623.66;5035062;28;20512;-71
2022/08/09 03:39:39;;;;;;;4.80;1.85;;;;;;;22.90;46.67;102623.78;5034383;28;20373;-71
2022/08/09 03:42:04;;;;;;;3.95;2.10;;;;;;;22.88;46.92;102617.75;5034858;28;20021;-72
2022/08/09 03:44:29;;;;;;;4.03;1.85;;;;;;;22.88;46.82;102623.06;5035320;28;20022;-71
2022/08/09 03:46:55;;;;;;;4.07;2.08;;;;;;;22.88;46.69;102630.19;5034302;28;20048;-71
2022/08/09 03:49:23;;;;;;;4.88;2.03;;;;;;;22.87;47.03;102624.00;5035038;28;20018;-72
2022/08/09 03:51:53;;;;;;;4.03;2.03;;;;;;;22.87;46.94;102626.66;5035248;28;20108;-71
2022/08/09 03:54:18;;;;;;;3.28;2.00;;;;;;;22.86;47.09;102632.09;5033996;28;20038;-72
2022/08/09 03:56:46;;;;;;;3.92;2.15;;;;;;;22.87;47.15;102628.47;5034857;28;20028;-71
2022/08/09 03:59:13;;;;;;;4.50;1.80;;;;;;;22.85;47.16;102625.94;5034834;28;20053;-72
2022/08/09 04:01:40;;;;;;;3.92;1.85;;;;;;;22.83;47.09;102626.06;5034252;28;20038;-72
2022/08/09 04:04:07;;;;;;;4.10;2.05;;;;;;;22.85;46.67;102627.75;5034521;28;20021;-72
2022/08/09 04:06:32;;;;;;;3.90;1.73;;;;;;;22.83;46.80;102626.06;5034796;28;20025;-71
2022/08/09 04:09:05;;;;;;;4.25;2.00;;;;;;;22.83;46.91;102625.22;5033811;28;20106;-72
2022/08/09 04:11:47;;;;;;;3.17;1.60;;;;;;;22.83;46.82;102622.56;5034648;28;20025;-71
2022/08/09 04:14:12;;;;;;;4.38;2.05;;;;;;;22.82;47.16;102624.34;5033743;28;20079;-72
2022/08/09 04:16:37;;;;;;;3.00;1.52;;;;;;;22.82;47.05;102621.69;5034743;28;20021;-72
2022/08/09 04:19:03;;;;;;;3.23;1.90;;;;;;;22.81;46.84;102620.00;5034352;28;20021;-72
2022/08/09 04:21:28;;;;;;;3.33;1.80;;;;;;;22.82;46.92;102623.50;5033560;28;20263;-72
2022/08/09 04:23:53;;;;;;;3.80;2.00;;;;;;;22.80;46.85;102626.28;5034395;28;20287;-72
2022/08/09 04:26:18;;;;;;;4.83;2.27;;;;;;;22.80;47.04;102626.28;5034215;28;20626;-71
2022/08/09 04:28:44;;;;;;;4.97;2.20;;;;;;;22.80;47.17;102634.25;5033829;28;20313;-72
2022/08/09 04:31:18;;;;;;;3.70;1.95;;;;;;;22.79;46.96;102634.34;5034164;28;20278;-71
2022/08/09 04:33:43;;;;;;;3.90;2.00;;;;;;;22.77;46.96;102634.47;5034216;28;20021;-71
2022/08/09 04:36:09;;;;;;;5.13;2.00;;;;;;;22.79;46.99;102645.00;5032586;28;20037;-72
2022/08/09 04:38:34;;;;;;;3.92;1.85;;;;;;;22.78;47.04;102649.47;5034102;28;20279;-71
2022/08/09 04:40:59;;;;;;;3.87;1.90;;;;;;;22.78;47.26;102643.28;5033623;28;20073;-72
2022/08/09 04:43:24;;;;;;;3.85;1.90;;;;;;;22.79;46.98;102648.47;5033458;28;20313;-72
2022/08/09 04:45:50;;;;;;;3.35;1.95;;;;;;;22.77;47.28;102652.25;5034083;28;20120;-71
2022/08/09 04:48:15;;;;;;;4.50;1.98;;;;;;;22.77;46.89;102645.09;5033511;28;20108;-72
2022/08/09 04:50:41;;;;;;;4.05;1.90;;;;;;;22.77;47.01;102645.09;5033155;28;20022;-72
2022/08/09 04:53:07;;;;;;;3.80;2.05;;;;;;;22.76;46.74;102645.22;5033637;28;20079;-72
2022/08/09 04:55:36;;;;;;;4.20;2.15;;;;;;;22.75;46.82;102644.38;5033912;28;20021;-72
2022/08/09 04:58:01;;;;;;;5.20;2.03;;;;;;;22.77;47.06;102654.91;5032846;28;20025;-72
2022/08/09 05:00:27;;;;;;;4.13;1.95;;;;;;;22.75;46.84;102655.00;5033890;28;20462;-72
2022/08/09 05:02:52;;;;;;;4.28;2.10;;;;;;;22.74;47.06;102652.47;5033697;28;20026;-72
2022/08/09 05:05:23;;;;;;;4.43;2.13;;;;;;;22.77;47.17;102657.56;5032693;28;20068;-71
2022/08/09 05:07:49;;;;;;;4.63;2.05;;;;;;;22.75;47.09;102662.97;5033770;28;20270;-72
2022/08/09 05:10:14;;;;;;;3.50;2.00;;;;;;;22.74;47.05;102663.94;5032469;28;20040;-72
2022/08/09 05:12:40;;;;;;;4.22;2.20;;;;;;;22.75;47.31;102670.94;5033564;28;20290;-72
2022/08/09 05:15:06;;;;;;;3.72;2.03;;;;;;;22.75;47.13;102664.78;5033238;28;20107;-72
2022/08/09 05:17:31;;;;;;;3.95;2.05;;;;;;;22.75;47.05;102664.78;5032815;28;20053;-71
2022/08/09 05:19:59;;;;;;;4.13;2.23;;;;;;;22.75;47.44;102664.78;5033289;28;20029;-71
2022/08/09 05:22:24;;;;;;;4.45;2.05;;;;;;;22.74;47.20;102666.59;5033337;28;20283;-71
2022/08/09 05:24:50;;;;;;;4.47;2.28;;;;;;;22.76;46.95;102661.16;5032696;28;20028;-71
2022/08/09 05:27:15;;;;;;;5.50;2.40;;;;;;;22.77;47.21;102662.88;5032974;28;20358;-71
2022/08/09 05:29:40;;;;;;;4.50;2.20;;;;;;;22.78;47.55;102664.53;5033126;28;20262;-72
2022/08/09 05:32:08;;;;;;;4.75;2.30;;;;;;;22.77;47.32;102663.72;5032225;28;20332;-72
2022/08/09 05:34:33;;;;;;;4.63;2.30;;;;;;;22.79;47.07;102661.78;5033139;28;20021;-71
2022/08/09 05:37:02;;;;;;;4.80;2.17;;;;;;;22.80;47.39;102665.31;5033036;28;20029;-71
2022/08/09 05:39:30;;;;;;;4.72;2.17;;;;;;;22.81;46.99;102664.31;5032316;28;20271;-70
2022/08/09 05:41:58;;;;;;;4.95;2.20;;;;;;;22.81;47.21;102662.53;5033025;28;20080;-72
2022/08/09 05:44:24;;;;;;;4.03;2.22;;;;;;;22.83;47.31;102670.41;5032948;28;20089;-72
2022/08/09 05:46:49;;;;;;;5.05;2.10;;;;;;;22.82;46.96;102668.69;5031446;28;20021;-72
2022/08/09 05:49:14;;;;;;;3.33;2.05;;;;;;;22.85;47.16;102675.59;5032806;28;20029;-71
2022/08/09 05:51:40;;;;;;;3.90;2.00;;;;;;;22.87;47.33;102679.00;5033053;28;20473;-71
2022/08/09 05:54:08;;;;;;;4.27;2.20;;;;;;;22.89;47.06;102680.59;5031690;28;20321;-71
2022/08/09 05:56:33;;;;;;;4.55;1.88;;;;;;;22.91;47.40;102677.81;5032904;28;20279;-71
2022/08/09 05:58:58;;;;;;;3.50;1.80;;;;;;;22.95;47.08;102680.09;5032500;28;20060;-73
2022/08/09 06:01:26;;;;;;;6.47;3.58;;;;;;;22.97;47.20;102680.88;5032112;28;20361;-68
2022/08/09 06:03:51;;;;;;;5.90;2.47;;;;;;;22.93;47.83;102689.19;5032820;28;20109;-69
2022/08/09 06:06:17;;;;;;;3.88;1.90;;;;;;;22.93;47.86;102692.69;5032604;28;20480;-67
2022/08/09 06:08:42;;;;;;;7.18;1.75;;;;;;;22.98;47.93;102687.03;5031695;28;20453;-68
2022/08/09 06:11:08;;;;;;;4.18;1.80;;;;;;;23.03;48.13;102687.53;5032440;28;20548;-68
2022/08/09 06:13:33;;;;;;;4.65;1.63;;;;;;;23.09;47.86;102692.44;5031832;28;20022;-68
2022/08/09 06:16:02;;;;;;;5.32;2.00;;;;;;;23.13;47.63;102690.38;5032332;28;20030;-68
2022/08/09 06:18:27;;;;;;;5.40;1.70;;;;;;;23.15;47.55;102691.97;5032502;28;20017;-66
2022/08/09 06:20:54;;;;;;;3.47;1.50;;;;;;;23.18;47.90;102702.41;5031899;28;20022;-67
2022/08/09 06:23:19;;;;;;;3.85;1.58;;;;;;;23.21;47.47;102698.66;5032149;28;20038;-68
2022/08/09 06:25:44;;;;;;;4.20;1.70;;;;;;;23.24;47.45;102702.91;5032514;28;20028;-67
2022/08/09 06:28:10;;;;;;;6.32;1.80;;;;;;;23.24;47.66;102694.91;5031435;28;20013;-68
2022/08/09 06:30:36;;;;;;;3.58;1.63;;;;;;;23.25;47.81;102696.63;5032407;28;20450;-68
2022/08/09 06:33:01;;;;;;;4.45;1.70;;;;;;;23.28;47.91;102694.56;5032147;28;20025;-68
2022/08/09 06:35:27;;;;;;;4.30;1.85;;;;;;;23.32;47.92;102705.81;4981510;28;20042;-68
2022/08/09 06:37:52;;;;;;;3.13;1.58;;;;;;;23.34;47.91;102707.44;5031450;28;20044;-67
2022/08/09 06:40:17;;;;;;;3.40;1.73;;;;;;;23.38;48.04;102701.88;5031951;28;20219;-68
2022/08/09 06:42:42;;;;;;;4.90;1.95;;;;;;;23.40;47.72;102705.25;5031534;28;20057;-67
2022/08/09 06:45:08;;;;;;;4.53;1.70;;;;;;;23.42;47.98;102696.22;5031994;28;20032;-70
2022/08/09 06:47:37;;;;;;;3.63;1.77;;;;;;;23.42;47.53;102701.53;5032131;28;20104;-69
2022/08/09 06:50:04;;;;;;;4.47;1.77;;;;;;;23.44;47.62;102696.09;5031374;28;20021;-69
2022/08/09 06:52:29;;;;;;;6.22;1.90;;;;;;;23.42;47.89;102695.38;5032444;28;20036;-70
2022/08/09 06:54:54;;;;;;;5.32;1.80;;;;;;;23.34;48.40;102706.59;5032369;28;20013;-67
2022/08/09 06:57:20;;;;;;;5.38;1.50;;;;;;;23.33;48.37;102719.00;5031609;28;20402;-69
2022/08/09 06:59:45;;;;;;;4.70;2.03;;;;;;;23.32;48.32;102712.03;5035524;28;20025;-69
2022/08/09 07:02:11;;;;;;;4.82;1.80;;;;;;;23.37;48.47;102717.00;5035556;28;20022;-67
2022/08/09 07:04:36;;;;;;;5.60;2.00;;;;;;;23.42;47.95;102712.19;5035409;28;20033;-68
2022/08/09 07:07:03;;;;;;;6.40;1.92;;;;;;;23.48;47.88;102719.69;5035664;28;20416;-71
2022/08/09 07:09:28;;;;;;;4.05;2.15;;;;;;;23.54;47.73;102721.91;5036147;28;20026;-74
2022/08/09 07:11:54;;;;;;;6.18;2.00;;;;;;;23.58;48.09;102711.88;5036288;28;20047;-74
2022/08/09 07:14:22;;;;;;;5.72;1.80;;;;;;;23.56;47.77;102716.47;5037340;28;20380;-76
2022/08/09 07:16:47;;;;;;;4.03;1.90;;;;;;;23.57;47.52;102714.66;5035246;28;20101;-76
2022/08/09 07:19:15;;;;;;;6.37;2.00;;;;;;;23.59;47.69;102710.03;5035610;28;20109;-74
2022/08/09 07:21:42;;;;;;;4.72;1.80;;;;;;;23.61;48.09;102716.13;5037225;28;20303;-75
2022/08/09 07:24:08;;;;;;;4.40;1.80;;;;;;;23.62;47.62;102715.13;5034609;28;20060;-75
2022/08/09 07:26:33;;;;;;;4.05;1.58;;;;;;;23.63;47.63;102716.84;5035429;28;20052;-75
2022/08/09 07:28:59;;;;;;;6.47;2.03;;;;;;;23.62;47.76;102713.31;5035030;28;20029;-76
2022/08/09 07:31:25;;;;;;;4.85;1.70;;;;;;;23.64;47.83;102714.06;5034799;28;20053;-76
2022/08/09 07:33:50;;;;;;;6.18;1.90;;;;;;;23.65;47.60;102715.75;5035574;28;20393;-74
2022/08/09 07:36:15;;;;;;;6.28;2.30;;;;;;;23.65;47.63;102721.06;5035097;28;20449;-71
2022/08/09 07:38:41;;;;;;;4.93;1.90;;;;;;;23.67;47.80;102721.81;5034624;28;20021;-72
2022/08/09 07:41:06;;;;;;;6.03;2.20;;;;;;;23.69;48.00;102724.38;5034819;28;20092;-71
2022/08/09 07:43:31;;;;;;;6.70;2.30;;;;;;;23.71;48.05;102717.94;5035097;28;20434;-72
2022/08/09 07:46:00;;;;;;;5.07;1.90;;;;;;;23.73;47.62;102723.16;5034158;28;20036;-70
2022/08/09 07:48:31;;;;;;;5.78;1.98;;;;;;;23.77;47.85;102721.13;5035236;28;20270;-72
2022/08/09 07:50:58;;;;;;;7.47;2.47;;;;;;;23.78;47.94;102715.66;5035203;28;20048;-72
2022/08/09 07:53:24;;;;;;;4.88;2.00;;;;;;;23.78;47.71;102715.66;5034141;28;20471;-72
2022/08/09 07:55:49;;;;;;;6.60;2.40;;;;;;;23.81;47.44;102717.25;5035043;28;20040;-71
2022/08/09 07:58:14;;;;;;;3.87;2.00;;;;;;;23.78;47.36;102713.00;5034372;28;20037;-72
2022/08/09 08:00:39;;;;;;;4.17;2.17;;;;;;;23.83;47.46;102720.63;5034288;28;20270;-71
2022/08/09 08:03:07;;;;;;;6.07;2.30;;;;;;;23.82;47.60;102722.47;5034596;28;20291;-70
2022/08/09 08:05:32;;;;;;;5.00;2.45;;;;;;;23.83;47.63;102726.84;5034880;28;20079;-71
2022/08/09 08:08:02;;;;;;;7.18;2.50;;;;;;;23.83;47.82;102728.63;5034045;28;20029;-71
2022/08/09 08:10:28;;;;;;;6.30;2.17;;;;;;;23.84;47.46;102727.69;5033790;28;20465;-72
2022/08/09 08:12:53;;;;;;;4.28;1.67;;;;;;;23.85;47.41;102722.25;5034509;28;20045;-71
2022/08/09 08:15:19;;;;;;;4.88;1.77;;;;;;;23.89;47.41;102729.06;5033715;28;20029;-71
2022/08/09 08:17:46;;;;;;;3.75;1.80;;;;;;;23.86;47.56;102726.63;5034636;28;20033;-72
2022/08/09 08:20:12;;;;;;;4.88;1.90;;;;;;;23.89;47.25;102728.19;5033709;28;20025;-72
2022/08/09 08:22:37;;;;;;;4.80;1.85;;;;;;;23.90;47.51;102721.91;5034642;28;20485;-71
2022/08/09 08:25:03;;;;;;;4.57;1.80;;;;;;;23.90;47.30;102729.91;5035617;28;20021;-72
2022/08/09 08:27:29;;;;;;;3.95;1.70;;;;;;;23.90;47.46;102724.56;5035584;28;20028;-72
2022/08/09 08:29:54;;;;;;;4.10;1.70;;;;;;;23.90;47.27;102730.72;5037057;28;20029;-72
2022/08/09 08:32:21;;;;;;;5.60;1.70;;;;;;;23.89;47.15;102723.72;5036247;28;20453;-72
2022/08/09 08:34:46;;;;;;;4.80;1.50;;;;;;;23.89;47.08;102721.06;5035146;28;20271;-72
2022/08/09 08:37:12;;;;;;;3.97;1.60;;;;;;;23.90;47.07;102722.75;5035597;28;20033;-72
2022/08/09 08:39:37;;;;;;;3.67;1.67;;;;;;;23.92;47.20;102729.78;5037080;28;20026;-73
2022/08/09 08:42:03;;;;;;;4.88;1.80;;;;;;;23.92;47.19;102721.78;5034058;28;20021;-72
2022/08/09 08:44:28;;;;;;;3.50;1.50;;;;;;;23.92;46.96;102729.78;5034290;28;20039;-73
2022/08/09 08:46:55;;;;;;;3.33;1.48;;;;;;;23.91;46.93;102723.63;5034954;28;20026;-73
2022/08/09 08:49:21;;;;;;;3.92;1.40;;;;;;;23.92;47.37;102721.78;5033739;28;20427;-72
2022/08/09 08:51:48;;;;;;;3.75;1.42;;;;;;;23.94;46.92;102727.84;5034529;28;20033;-73
2022/08/09 08:54:14;;;;;;;4.03;1.52;;;;;;;23.94;47.07;102719.84;5034280;28;20037;-73
2022/08/09 08:56:40;;;;;;;3.28;1.50;;;;;;;23.94;47.19;102722.50;5033570;28;20029;-73
2022/08/09 08:59:10;;;;;;;3.03;1.38;;;;;;;23.92;47.05;102717.31;5034059;28;20464;-73
2022/08/09 09:01:39;;;;;;;4.80;1.30;;;;;;;23.93;46.86;102723.50;5034694;28;20029;-73
2022/08/09 09:04:11;;;;;;;4.57;1.55;;;;;;;23.94;46.88;102727.84;5033329;28;20029;-72
2022/08/09 09:06:40;;;;;;;2.88;1.45;;;;;;;23.92;47.15;102727.94;5034385;28;20026;-73
2022/08/09 09:09:06;;;;;;;3.20;1.38;;;;;;;23.94;47.11;102733.16;5033209;28;20025;-72
2022/08/09 09:11:34;;;;;;;2.55;1.20;;;;;;;23.92;46.74;102738.59;5032882;28;20025;-72
2022/08/09 09:14:13;;;;;;;2.55;1.13;;;;;;;23.92;46.94;102738.59;5033816;28;20048;-73
2022/08/09 09:16:38;;;;;;;2.65;1.13;;;;;;;23.94;46.79;102743.81;5032702;28;20023;-73
2022/08/09 09:19:06;;;;;;;4.20;1.70;;;;;;;23.91;46.85;102739.59;5033023;28;20116;-73
2022/08/09 09:21:32;;;;;;;2.70;1.30;;;;;;;23.92;46.91;102735.94;5033022;28;20021;-73
2022/08/09 09:24:11;;;;;;;3.65;1.20;;;;;;;23.94;46.49;102741.16;5032281;28;20354;-72
2022/08/09 09:26:36;;;;;;;3.25;1.40;;;;;;;23.95;46.87;102741.03;5033367;28;20072;-73
2022/08/09 09:29:04;;;;;;;2.75;1.20;;;;;;;23.96;46.55;102747.19;5032849;28;20366;-75
2022/08/09 09:31:30;;;;;;;2.50;1.20;;;;;;;23.96;46.95;102753.38;5032333;28;20035;-75
2022/08/09 09:34:11;;;;;;;3.70;1.40;;;;;;;23.96;46.70;102742.75;5032927;28;20120;-72
2022/08/09 09:36:42;;;;;;;4.55;1.35;;;;;;;23.97;46.83;102739.09;5033267;28;20052;-72
2022/08/09 09:39:09;;;;;;;2.90;1.30;;;;;;;23.97;46.58;102740.91;5031947;28;20043;-72
2022/08/09 09:41:37;;;;;;;4.32;1.25;;;;;;;23.97;46.71;102738.25;5032849;28;20038;-73
2022/08/09 09:44:05;;;;;;;2.85;1.10;;;;;;;23.99;46.48;102733.66;5032599;28;20021;-82
2022/08/09 09:46:38;;;;;;;2.60;1.30;;;;;;;23.99;46.44;102738.97;5032043;28;20029;-72
2022/08/09 09:49:07;;;;;;;8.27;1.30;;;;;;;23.99;46.45;102723.88;5032654;28;20028;-71
2022/08/09 09:51:34;;;;;;;3.03;1.33;;;;;;;23.99;46.32;102728.31;5032065;28;20056;-72
2022/08/09 09:54:03;;;;;;;3.50;1.10;;;;;;;24.00;46.64;102738.03;5032516;28;20025;-72
2022/08/09 09:56:31;;;;;;;3.58;1.20;;;;;;;24.00;46.26;102740.69;5032834;28;20022;-72
2022/08/09 09:58:56;;;;;;;4.18;1.27;;;;;;;24.00;46.61;102732.69;5031918;28;20029;-72
2022/08/09 10:01:21;;;;;;;3.63;1.40;;;;;;;23.99;46.37;102728.31;5032773;28;20473;-75
2022/08/09 10:03:51;;;;;;;2.95;1.20;;;;;;;23.98;46.11;102729.31;5033038;28;20310;-71
2022/08/09 10:06:17;;;;;;;2.63;1.17;;;;;;;24.01;46.18;102739.72;5031951;28;20533;-75
2022/08/09 10:08:45;;;;;;;3.85;1.33;;;;;;;23.99;46.37;102741.63;5034817;28;20057;-73
2022/08/09 10:11:19;;;;;;;2.00;1.00;;;;;;;23.98;46.08;102739.97;5032544;28;20453;-72
2022/08/09 10:13:44;;;;;;;4.80;1.63;;;;;;;23.98;46.40;102734.63;5032195;28;20089;-71
2022/08/09 10:16:13;;;;;;;2.55;1.20;;;;;;;23.97;45.82;102741.75;5032575;28;20026;-71
2022/08/09 10:18:38;;;;;;;2.83;1.08;;;;;;;23.94;46.30;102742.03;5032801;28;20025;-64
2022/08/09 10:21:12;;;;;;;2.70;1.25;;;;;;;23.93;46.28;102737.66;5031860;28;20075;-71
2022/08/09 10:23:42;;;;;;;3.40;1.30;;;;;;;23.92;46.41;102727.94;5032610;28;20060;-71
2022/08/09 10:26:08;;;;;;;3.85;1.38;;;;;;;23.89;46.32;102729.06;5032370;28;20025;-66
2022/08/09 10:28:34;;;;;;;2.58;1.30;;;;;;;23.94;46.55;102734.03;5031994;28;20025;-71
2022/08/09 10:31:00;;;;;;;4.57;1.35;;;;;;;23.98;46.08;102730.16;5032394;28;20447;-71
2022/08/09 10:33:25;;;;;;;2.47;1.10;;;;;;;24.04;46.16;102726.19;5033951;28;20049;-71
2022/08/09 10:35:51;;;;;;;3.73;1.40;;;;;;;24.07;46.09;102718.78;5035634;28;20021;-70
2022/08/09 10:38:20;;;;;;;4.97;1.13;;;;;;;24.11;45.88;102715.88;5036368;28;20302;-72
2022/08/09 10:40:46;;;;;;;3.25;1.30;;;;;;;24.14;45.90;102719.16;5035377;28;20038;-71
2022/08/09 10:43:11;;;;;;;2.25;1.10;;;;;;;24.18;45.63;102723.28;5036208;28;20380;-70
2022/08/09 10:45:43;;;;;;;5.47;1.35;;;;;;;24.21;45.67;102716.84;5036404;28;20036;-71
2022/08/09 10:48:32;;;;;;;3.55;1.17;;;;;;;24.22;45.22;102716.72;5035771;28;20026;-65
2022/08/09 10:51:47;;;;;;;3.40;1.20;;;;;;;24.22;45.65;102716.72;5036258;28;20025;-67
2022/08/09 10:54:13;;;;;;;2.78;1.17;;;;;;;24.26;45.17;102715.53;5036029;28;20030;-65
2022/08/09 10:56:40;;;;;;;2.67;1.08;;;;;;;24.29;45.03;102713.59;5035300;28;20025;-66
2022/08/09 10:59:23;;;;;;;2.55;1.30;;;;;;;24.30;44.99;102709.97;5035562;28;20431;-67
2022/08/09 11:01:50;;;;;;;1.98;1.00;;;;;;;24.31;45.31;102708.97;5036446;28;20032;-67
2022/08/09 11:04:20;;;;;;;4.00;1.20;;;;;;;24.30;44.87;102696.66;5036857;28;20125;-67
2022/08/09 11:07:09;;;;;;;1.70;0.95;;;;;;;24.27;44.96;102703.06;5036060;28;20029;-67
2022/08/09 11:09:37;;;;;;;4.72;1.20;;;;;;;24.26;45.02;102707.53;5034931;28;20484;-66
2022/08/09 11:12:10;;;;;;;2.55;1.10;;;;;;;24.26;45.04;102712.03;5035308;28;20034;-67
2022/08/09 11:14:55;;;;;;;3.30;1.17;;;;;;;24.27;45.17;102706.59;5035915;28;20040;-67
2022/08/09 11:17:20;;;;;;;1.77;0.98;;;;;;;24.26;44.96;102707.53;5035005;28;20079;-68
2022/08/09 11:19:48;;;;;;;2.50;1.10;;;;;;;24.26;45.19;102706.72;5035668;28;20389;-67
2022/08/09 11:22:14;;;;;;;2.00;0.90;;;;;;;24.25;44.82;102700.50;5035282;28;20033;-66
2022/08/09 11:25:09;;;;;;;2.45;1.00;;;;;;;24.24;45.14;102706.81;5034620;28;20076;-65
2022/08/09 11:27:45;;;;;;;;;;;;;;;24.26;44.89;102704.03;5035832;28;20484;-67
2022/08/09 11:30:30;;;;;;;2.05;1.00;;;;;;;24.28;45.00;102704.75;5034535;28;19951;-64